createdAt,value
2019-03-10T00:02:29.548Z,1.70
2019-03-10T00:04:59.854Z,1.70
2019-03-10T00:07:30.192Z,1.70
2019-03-10T00:10:00.563Z,1.70
2019-03-10T00:12:30.912Z,1.70
2019-03-10T00:15:01.369Z,1.70
2019-03-10T00:17:31.713Z,1.70
2019-03-10T00:20:02.158Z,1.70
2019-03-10T00:22:32.517Z,1.70
2019-03-10T00:25:03.041Z,1.70
2019-03-10T00:27:33.398Z,1.60
2019-03-10T00:30:06.200Z,1.60
2019-03-10T00:32:36.568Z,1.60
2019-03-10T00:35:07.313Z,1.60
2019-03-10T00:37:37.725Z,1.50
2019-03-10T00:40:30.772Z,1.50
2019-03-10T00:43:23.776Z,1.50
2019-03-10T00:46:22.476Z,1.50
2019-03-10T00:49:07.882Z,1.50
2019-03-10T00:52:06.849Z,1.40
2019-03-10T00:54:37.197Z,1.50
2019-03-10T00:57:07.625Z,1.40
2019-03-10T00:59:38.164Z,1.40
2019-03-10T01:02:08.506Z,1.40
2019-03-10T01:04:38.865Z,1.40
2019-03-10T01:07:09.311Z,1.40
2019-03-10T01:09:39.668Z,1.40
2019-03-10T01:12:10.228Z,1.30
2019-03-10T01:14:40.701Z,1.30
2019-03-10T01:17:11.516Z,1.40
2019-03-10T01:19:42.489Z,1.30
2019-03-10T01:22:13.024Z,1.40
2019-03-10T01:24:43.573Z,1.30
2019-03-10T01:27:13.993Z,1.30
2019-03-10T01:29:44.341Z,1.30
2019-03-10T01:32:34.006Z,1.30
2019-03-10T01:35:10.363Z,1.30
2019-03-10T01:37:40.637Z,1.30
2019-03-10T01:40:10.985Z,1.30
2019-03-10T01:42:41.321Z,1.30
2019-03-10T01:45:13.082Z,1.20
2019-03-10T01:47:43.704Z,1.20
2019-03-10T01:50:14.944Z,1.30
2019-03-10T01:52:45.393Z,1.30
2019-03-10T01:55:15.622Z,1.20
2019-03-10T01:57:46.086Z,1.20
2019-03-10T02:00:17.398Z,1.20
2019-03-10T02:02:47.981Z,1.20
2019-03-10T02:05:18.385Z,1.20
2019-03-10T02:07:48.762Z,1.20
2019-03-10T02:10:19.230Z,1.20
2019-03-10T02:12:49.570Z,1.20
2019-03-10T02:15:19.906Z,1.20
2019-03-10T02:17:50.193Z,1.10
2019-03-10T02:20:20.816Z,1.10
2019-03-10T02:22:51.267Z,1.10
2019-03-10T02:25:21.569Z,1.10
2019-03-10T02:27:51.878Z,1.10
2019-03-10T02:30:22.389Z,1.00
2019-03-10T02:32:52.679Z,1.10
2019-03-10T02:35:23.113Z,1.00
2019-03-10T02:37:53.512Z,1.00
2019-03-10T02:40:23.926Z,1.00
2019-03-10T02:42:54.222Z,1.10
2019-03-10T02:45:24.739Z,1.10
2019-03-10T02:47:55.074Z,1.10
2019-03-10T02:50:25.405Z,1.10
2019-03-10T02:52:55.770Z,1.10
2019-03-10T02:55:26.134Z,1.10
2019-03-10T02:57:56.932Z,1.10
2019-03-10T03:00:27.281Z,1.10
2019-03-10T03:02:57.431Z,1.00
2019-03-10T03:05:27.735Z,1.00
2019-03-10T03:07:58.078Z,1.00
2019-03-10T03:10:28.467Z,1.00
2019-03-10T03:12:58.848Z,1.00
2019-03-10T03:15:29.384Z,1.00
2019-03-10T03:17:59.895Z,1.00
2019-03-10T03:20:30.449Z,1.00
2019-03-10T03:23:00.853Z,0.90
2019-03-10T03:25:31.426Z,0.90
2019-03-10T03:28:01.642Z,1.00
2019-03-10T03:30:32.122Z,0.90
2019-03-10T03:33:02.653Z,0.90
2019-03-10T03:35:50.481Z,0.90
2019-03-10T03:38:35.945Z,0.80
2019-03-10T03:41:14.983Z,0.80
2019-03-10T03:43:45.259Z,0.90
2019-03-10T03:46:16.021Z,0.90
2019-03-10T03:48:46.431Z,0.80
2019-03-10T03:51:16.925Z,0.80
2019-03-10T03:53:47.312Z,0.80
2019-03-10T03:56:17.658Z,0.80
2019-03-10T03:58:48.017Z,0.80
2019-03-10T04:01:22.534Z,0.80
2019-03-10T04:03:53.463Z,0.80
2019-03-10T04:06:23.822Z,0.80
2019-03-10T04:08:54.178Z,0.90
2019-03-10T04:11:24.742Z,0.80
2019-03-10T04:13:55.187Z,0.70
2019-03-10T04:16:25.465Z,0.70
2019-03-10T04:18:55.863Z,0.70
2019-03-10T04:21:26.206Z,0.70
2019-03-10T04:23:56.501Z,0.70
2019-03-10T04:26:28.777Z,0.70
2019-03-10T04:28:59.105Z,0.70
2019-03-10T04:31:29.383Z,0.70
2019-03-10T04:33:59.675Z,0.60
2019-03-10T04:36:30.209Z,0.60
2019-03-10T04:39:00.569Z,0.60
2019-03-10T04:41:30.913Z,0.50
2019-03-10T04:44:01.407Z,0.50
2019-03-10T04:46:31.766Z,0.50
2019-03-10T04:49:02.068Z,0.50
2019-03-10T04:51:32.412Z,0.50
2019-03-10T04:54:02.701Z,0.50
2019-03-10T04:56:34.543Z,0.40
2019-03-10T04:59:05.176Z,0.40
2019-03-10T05:01:35.473Z,0.40
2019-03-10T05:04:06.032Z,0.40
2019-03-10T05:06:36.636Z,0.40
2019-03-10T05:09:09.833Z,0.40
2019-03-10T05:11:40.705Z,0.40
2019-03-10T05:14:10.986Z,0.40
2019-03-10T05:16:41.328Z,0.40
2019-03-10T05:19:11.796Z,0.40
2019-03-10T05:21:42.113Z,0.40
2019-03-10T05:24:12.633Z,0.40
2019-03-10T05:26:42.943Z,0.30
2019-03-10T05:29:13.557Z,0.30
2019-03-10T05:31:43.920Z,0.30
2019-03-10T05:34:14.205Z,0.20
2019-03-10T05:36:44.575Z,0.20
2019-03-10T05:39:14.813Z,0.20
2019-03-10T05:41:45.343Z,0.30
2019-03-10T05:44:15.806Z,0.30
2019-03-10T05:46:46.112Z,0.30
2019-03-10T05:49:16.437Z,0.30
2019-03-10T05:51:46.797Z,0.30
2019-03-10T05:54:17.016Z,0.30
2019-03-10T05:56:47.460Z,0.30
2019-03-10T05:59:17.901Z,0.30
2019-03-10T06:01:48.213Z,0.30
2019-03-10T06:04:18.586Z,0.30
2019-03-10T06:06:48.893Z,0.30
2019-03-10T06:09:19.202Z,0.30
2019-03-10T06:11:49.581Z,0.20
2019-03-10T06:14:19.929Z,0.20
2019-03-10T06:16:50.292Z,0.20
2019-03-10T06:19:20.578Z,0.20
2019-03-10T06:21:50.873Z,0.20
2019-03-10T06:24:21.322Z,0.10
2019-03-10T06:26:51.889Z,0.10
2019-03-10T06:29:22.061Z,0.00
2019-03-10T06:31:52.616Z,0.00
2019-03-10T06:34:22.986Z,0.00
2019-03-10T06:36:53.341Z,0.00
2019-03-10T06:39:35.733Z,0.00
2019-03-10T06:42:05.954Z,0.00
2019-03-10T06:44:36.330Z,0.00
2019-03-10T06:47:06.801Z,-0.10
2019-03-10T06:49:37.413Z,0.00
2019-03-10T06:52:07.889Z,-0.10
2019-03-10T06:54:38.479Z,-0.10
2019-03-10T06:57:08.893Z,-0.10
2019-03-10T06:59:39.246Z,0.00
2019-03-10T07:02:09.717Z,0.00
2019-03-10T07:04:40.029Z,0.00
2019-03-10T07:07:10.409Z,-0.10
2019-03-10T07:09:40.998Z,-0.10
2019-03-10T07:12:11.652Z,-0.30
2019-03-10T07:14:42.056Z,-0.30
2019-03-10T07:17:12.393Z,-0.30
2019-03-10T07:19:46.425Z,-0.30
2019-03-10T07:22:16.939Z,-0.40
2019-03-10T07:24:47.553Z,-0.30
2019-03-10T07:27:17.859Z,-0.40
2019-03-10T07:29:50.014Z,-0.40
2019-03-10T07:32:33.897Z,-0.30
2019-03-10T07:35:12.437Z,-0.40
2019-03-10T07:37:53.756Z,-0.30
2019-03-10T07:40:25.961Z,-0.20
2019-03-10T07:43:04.116Z,-0.20
2019-03-10T07:45:39.213Z,-0.20
2019-03-10T07:48:11.269Z,-0.20
2019-03-10T07:50:49.375Z,-0.10
2019-03-10T07:53:21.605Z,-0.10
2019-03-10T07:56:11.431Z,-0.10
2019-03-10T07:58:43.439Z,0.00
2019-03-10T08:01:27.072Z,0.00
2019-03-10T08:04:13.846Z,0.20
2019-03-10T08:06:51.963Z,0.20
2019-03-10T08:09:24.147Z,0.30
2019-03-10T08:12:12.476Z,0.50
2019-03-10T08:14:49.081Z,0.60
2019-03-10T08:17:21.461Z,0.70
2019-03-10T08:19:55.794Z,0.70
2019-03-10T08:22:38.415Z,0.70
2019-03-10T08:25:19.872Z,0.60
2019-03-10T08:28:01.248Z,0.60
2019-03-10T08:30:43.957Z,0.60
2019-03-10T08:33:18.761Z,0.60
2019-03-10T08:35:53.666Z,0.50
2019-03-10T08:38:34.733Z,0.50
2019-03-10T08:41:18.716Z,0.30
2019-03-10T08:43:56.638Z,0.30
2019-03-10T08:46:28.849Z,0.30
2019-03-10T08:51:53.948Z,0.40
2019-03-10T08:54:34.986Z,0.40
2019-03-10T08:57:25.824Z,0.40
2019-03-10T09:00:13.771Z,0.40
2019-03-10T09:02:57.511Z,0.40
2019-03-10T09:05:35.950Z,0.50
2019-03-10T09:08:13.864Z,0.50
2019-03-10T09:10:54.861Z,0.60
2019-03-10T09:13:29.910Z,0.60
2019-03-10T09:16:16.958Z,0.60
2019-03-10T09:18:54.858Z,0.70
2019-03-10T09:21:26.725Z,0.60
2019-03-10T09:24:30.545Z,0.60
2019-03-10T09:27:18.676Z,0.60
2019-03-10T09:30:06.165Z,0.70
2019-03-10T09:32:53.380Z,0.80
2019-03-10T09:35:25.525Z,0.90
2019-03-10T09:37:57.701Z,0.90
2019-03-10T09:40:35.501Z,0.90
2019-03-10T09:43:16.169Z,0.80
2019-03-10T09:45:48.436Z,0.80
2019-03-10T09:48:36.534Z,0.90
2019-03-10T09:51:17.549Z,0.80
2019-03-10T09:54:04.806Z,0.80
2019-03-10T09:56:36.925Z,0.90
2019-03-10T09:59:09.241Z,1.00
2019-03-10T10:01:42.861Z,0.80
2019-03-10T10:04:17.826Z,0.90
2019-03-10T10:06:52.721Z,0.90
2019-03-10T10:09:33.673Z,1.00
2019-03-10T10:12:15.149Z,1.00
2019-03-10T10:15:05.877Z,1.20
2019-03-10T10:17:50.214Z,1.20
2019-03-10T10:20:38.516Z,1.00
2019-03-10T10:23:26.879Z,1.20
2019-03-10T10:26:02.273Z,1.50
2019-03-10T10:28:40.272Z,1.80
2019-03-10T10:31:30.833Z,1.90
2019-03-10T10:34:19.492Z,1.90
2019-03-10T10:37:03.548Z,2.10
2019-03-10T10:39:35.613Z,2.10
2019-03-10T10:42:15.167Z,2.20
2019-03-10T10:44:47.154Z,2.20
2019-03-10T10:47:35.563Z,2.40
2019-03-10T10:50:22.148Z,2.60
2019-03-10T10:52:54.410Z,2.80
2019-03-10T10:55:43.412Z,2.90
2019-03-10T10:58:18.073Z,2.30
2019-03-10T11:00:59.216Z,2.40
2019-03-10T11:03:47.613Z,2.40
2019-03-10T11:06:35.657Z,2.60
2019-03-10T11:09:23.022Z,2.70
2019-03-10T11:12:13.347Z,2.60
2019-03-10T11:14:45.568Z,2.70
2019-03-10T11:17:23.677Z,2.50
2019-03-10T11:20:11.235Z,2.70
2019-03-10T11:22:46.434Z,2.80
2019-03-10T11:25:18.641Z,3.00
2019-03-10T11:27:50.654Z,3.20
2019-03-10T11:30:25.497Z,3.30
2019-03-10T11:32:57.614Z,3.30
2019-03-10T11:35:29.533Z,3.50
2019-03-10T11:38:04.789Z,3.50
2019-03-10T11:40:39.611Z,3.80
2019-03-10T11:43:39.949Z,4.10
2019-03-10T11:46:36.627Z,4.10
2019-03-10T11:49:17.478Z,4.20
2019-03-10T11:51:58.571Z,4.10
2019-03-10T11:54:36.829Z,4.30
2019-03-10T11:57:20.866Z,4.60
2019-03-10T11:59:53.006Z,4.60
2019-03-10T12:02:25.061Z,4.70
2019-03-10T12:05:00.356Z,4.70
2019-03-10T12:07:38.334Z,5.10
2019-03-10T12:10:10.287Z,5.20
2019-03-10T12:12:41.366Z,5.40
2019-03-10T12:15:13.838Z,5.50
2019-03-10T12:17:44.146Z,5.20
2019-03-10T12:20:15.258Z,5.40
2019-03-10T12:22:45.841Z,5.60
2019-03-10T12:25:16.411Z,5.40
2019-03-10T12:27:47.066Z,5.30
2019-03-10T12:30:17.703Z,5.30
2019-03-10T12:32:54.781Z,5.40
2019-03-10T12:35:34.066Z,5.50
2019-03-10T12:37:57.662Z,5.80
2019-03-10T12:40:28.217Z,6.00
2019-03-10T12:43:02.258Z,5.50
2019-03-10T12:45:32.865Z,5.00
2019-03-10T12:48:03.633Z,4.90
2019-03-10T12:50:34.085Z,4.90
2019-03-10T12:53:04.716Z,4.70
2019-03-10T12:55:35.220Z,4.20
2019-03-10T12:58:05.840Z,3.80
2019-03-10T13:00:36.492Z,3.50
2019-03-10T13:03:06.924Z,3.70
2019-03-10T13:05:37.401Z,3.80
2019-03-10T13:08:07.931Z,3.80
2019-03-10T13:10:38.315Z,3.60
2019-03-10T13:13:09.121Z,3.50
2019-03-10T13:15:39.922Z,3.50
2019-03-10T13:18:10.655Z,3.30
2019-03-10T13:20:41.256Z,3.30
2019-03-10T13:23:11.742Z,3.40
2019-03-10T13:25:42.397Z,3.60
2019-03-10T13:28:13.297Z,3.80
2019-03-10T13:30:45.666Z,3.70
2019-03-10T13:33:16.414Z,3.50
2019-03-10T13:35:47.124Z,3.40
2019-03-10T13:38:17.981Z,3.30
2019-03-10T13:40:48.602Z,3.20
2019-03-10T13:43:19.361Z,3.20
2019-03-10T13:45:50.090Z,3.20
2019-03-10T13:48:20.449Z,3.40
2019-03-10T13:51:10.589Z,3.50
2019-03-10T13:53:41.093Z,3.60
2019-03-10T13:56:11.569Z,3.50
2019-03-10T13:58:43.040Z,3.80
2019-03-10T14:01:13.528Z,3.70
2019-03-10T14:03:44.087Z,3.80
2019-03-10T14:06:15.157Z,3.70
2019-03-10T14:08:46.100Z,3.70
2019-03-10T14:11:16.385Z,3.70
2019-03-10T14:13:46.710Z,3.50
2019-03-10T14:16:17.182Z,3.30
2019-03-10T14:18:48.035Z,3.40
2019-03-10T14:21:18.570Z,3.30
2019-03-10T14:23:48.925Z,3.20
2019-03-10T14:26:21.219Z,2.80
2019-03-10T14:28:51.851Z,2.70
2019-03-10T14:31:22.518Z,2.50
2019-03-10T14:33:53.130Z,2.40
2019-03-10T14:36:23.686Z,2.40
2019-03-10T14:38:54.069Z,2.50
2019-03-10T14:41:24.703Z,2.30
2019-03-10T14:43:55.399Z,2.30
2019-03-10T14:46:25.607Z,2.10
2019-03-10T14:48:55.926Z,2.10
2019-03-10T14:51:26.150Z,2.00
2019-03-10T14:53:56.594Z,1.90
2019-03-10T14:56:27.224Z,1.80
2019-03-10T14:58:57.738Z,1.70
2019-03-10T15:01:28.374Z,1.70
2019-03-10T15:03:58.813Z,1.60
2019-03-10T15:06:29.454Z,1.60
2019-03-10T15:08:59.731Z,1.70
2019-03-10T15:11:30.097Z,1.70
2019-03-10T15:14:00.498Z,1.60
2019-03-10T15:16:30.861Z,1.60
2019-03-10T15:19:01.301Z,1.60
2019-03-10T15:21:31.759Z,1.50
2019-03-10T15:24:02.134Z,1.50
2019-03-10T15:26:32.440Z,1.40
2019-03-10T15:29:03.121Z,1.50
2019-03-10T15:31:34.436Z,1.40
2019-03-10T15:34:05.497Z,1.50
2019-03-10T15:36:36.056Z,1.50
2019-03-10T15:39:06.987Z,1.50
2019-03-10T15:41:37.451Z,1.50
2019-03-10T15:44:07.677Z,1.50
2019-03-10T15:46:38.055Z,1.50
2019-03-10T15:49:08.399Z,1.40
2019-03-10T15:51:39.093Z,1.30
2019-03-10T15:54:09.526Z,1.30
2019-03-10T15:56:39.958Z,1.30
2019-03-10T15:59:10.405Z,1.30
2019-03-10T16:01:40.759Z,1.20
2019-03-10T16:04:18.760Z,1.20
2019-03-10T16:06:49.309Z,1.20
2019-03-10T16:09:20.208Z,1.20
2019-03-10T16:11:50.487Z,1.10
2019-03-10T16:14:21.005Z,1.10
2019-03-10T16:16:51.281Z,1.10
2019-03-10T16:19:21.816Z,1.10
2019-03-10T16:21:52.427Z,1.00
2019-03-10T16:24:22.880Z,1.00
2019-03-10T16:26:53.277Z,0.90
2019-03-10T16:29:23.866Z,0.90
2019-03-10T16:31:54.197Z,0.80
2019-03-10T16:34:24.583Z,0.90
2019-03-10T16:36:55.209Z,0.90
2019-03-10T16:39:25.400Z,0.90
2019-03-10T16:41:55.821Z,0.80
2019-03-10T16:44:26.373Z,0.80
2019-03-10T16:46:56.746Z,0.80
2019-03-10T16:49:27.045Z,0.80
2019-03-10T16:51:57.419Z,0.80
2019-03-10T16:54:27.847Z,0.80
2019-03-10T16:56:58.537Z,0.70
2019-03-10T16:59:29.133Z,0.60
2019-03-10T17:02:00.064Z,0.60
2019-03-10T17:04:30.701Z,0.60
2019-03-10T17:07:01.092Z,0.50
2019-03-10T17:09:31.950Z,0.50
2019-03-10T17:12:02.347Z,0.50
2019-03-10T17:14:33.003Z,0.50
2019-03-10T17:17:03.776Z,0.50
2019-03-10T17:19:34.467Z,0.40
2019-03-10T17:22:05.501Z,0.40
2019-03-10T17:24:35.910Z,0.40
2019-03-10T17:27:06.501Z,0.30
2019-03-10T17:29:37.817Z,0.40
2019-03-10T17:32:08.244Z,0.30
2019-03-10T17:34:39.089Z,0.30
2019-03-10T17:37:09.445Z,0.30
2019-03-10T17:39:40.158Z,0.30
2019-03-10T17:42:10.591Z,0.30
2019-03-10T17:44:41.735Z,0.30
2019-03-10T17:47:12.345Z,0.20
2019-03-10T17:49:43.010Z,0.20
2019-03-10T17:52:14.607Z,0.20
2019-03-10T17:54:45.146Z,0.20
2019-03-10T17:57:15.429Z,0.20
2019-03-10T17:59:45.752Z,0.10
2019-03-10T18:02:16.125Z,0.10
2019-03-10T18:04:46.789Z,0.10
2019-03-10T18:07:17.004Z,0.10
2019-03-10T18:09:47.374Z,0.10
2019-03-10T18:12:17.908Z,0.00
2019-03-10T18:14:48.259Z,0.00
2019-03-10T18:17:18.397Z,0.00
2019-03-10T18:19:49.057Z,0.00
2019-03-10T18:22:19.345Z,0.00
2019-03-10T18:24:49.537Z,-0.10
2019-03-10T18:27:20.066Z,-0.10
2019-03-10T18:29:50.679Z,-0.10
2019-03-10T18:32:21.315Z,-0.10
2019-03-10T18:34:51.966Z,-0.10
2019-03-10T18:37:22.887Z,-0.10
2019-03-10T18:39:53.241Z,-0.10
2019-03-10T18:42:23.724Z,-0.20
2019-03-10T18:44:54.081Z,-0.20
2019-03-10T18:47:24.818Z,-0.20
2019-03-10T18:49:55.532Z,-0.20
2019-03-10T18:52:26.381Z,-0.30
2019-03-10T18:54:57.485Z,-0.30
2019-03-10T18:57:28.479Z,-0.30
2019-03-10T18:59:59.039Z,-0.30
2019-03-10T19:02:30.569Z,-0.30
2019-03-10T19:05:01.763Z,-0.30
2019-03-10T19:07:32.225Z,-0.40
2019-03-10T19:10:05.045Z,-0.40
2019-03-10T19:12:35.477Z,-0.50
2019-03-10T19:15:11.877Z,-0.50
2019-03-10T19:17:42.966Z,-0.50
2019-03-10T19:20:14.617Z,-0.50
2019-03-10T19:22:45.146Z,-0.50
2019-03-10T19:25:16.612Z,-0.50
2019-03-10T19:27:46.976Z,-0.50
2019-03-10T19:30:22.791Z,-0.50
2019-03-10T19:32:53.165Z,-0.50
2019-03-10T19:35:23.975Z,-0.60
2019-03-10T19:37:54.536Z,-0.60
2019-03-10T19:40:25.454Z,-0.70
2019-03-10T19:42:56.305Z,-0.70
2019-03-10T19:45:27.229Z,-0.70
2019-03-10T19:47:57.830Z,-0.80
2019-03-10T19:50:29.464Z,-0.80
2019-03-10T19:52:59.969Z,-0.80
2019-03-10T19:55:31.985Z,-0.80
2019-03-10T19:58:02.287Z,-0.80
2019-03-10T20:00:32.821Z,-0.80
2019-03-10T20:03:03.222Z,-0.80
2019-03-10T20:05:33.582Z,-0.80
2019-03-10T20:08:04.249Z,-0.80
2019-03-10T20:10:35.073Z,-0.80
2019-03-10T20:13:05.711Z,-0.80
2019-03-10T20:15:36.259Z,-0.80
2019-03-10T20:18:06.918Z,-0.80
2019-03-10T20:20:37.561Z,-0.80
2019-03-10T20:23:08.026Z,-0.90
2019-03-10T20:25:38.804Z,-0.90
2019-03-10T20:28:09.573Z,-0.90
2019-03-10T20:30:40.028Z,-0.90
2019-03-10T20:33:10.556Z,-0.90
2019-03-10T20:35:41.215Z,-0.90
2019-03-10T20:38:11.959Z,-1.00
2019-03-10T20:40:42.601Z,-1.00
2019-03-10T20:43:12.894Z,-1.00
2019-03-10T20:45:44.965Z,-1.00
2019-03-10T20:48:15.428Z,-1.00
2019-03-10T20:50:45.917Z,-1.10
2019-03-10T20:53:16.172Z,-1.00
2019-03-10T20:55:47.066Z,-1.00
2019-03-10T20:58:17.357Z,-1.10
2019-03-10T21:00:47.994Z,-1.10
2019-03-10T21:03:18.391Z,-1.10
2019-03-10T21:05:48.725Z,-1.10
2019-03-10T21:08:19.461Z,-1.20
2019-03-10T21:10:50.014Z,-1.20
2019-03-10T21:13:20.315Z,-1.20
2019-03-10T21:15:51.067Z,-1.20
2019-03-10T21:18:21.417Z,-1.20
2019-03-10T21:20:51.733Z,-1.20
2019-03-10T21:23:22.305Z,-1.20
2019-03-10T21:25:52.622Z,-1.30
2019-03-10T21:28:23.111Z,-1.30
2019-03-10T21:30:53.737Z,-1.40
2019-03-10T21:33:24.381Z,-1.40
2019-03-10T21:35:54.634Z,-1.40
2019-03-10T21:38:25.225Z,-1.50
2019-03-10T21:40:55.686Z,-1.50
2019-03-10T21:43:26.252Z,-1.50
2019-03-10T21:45:56.737Z,-1.50
2019-03-10T21:48:27.145Z,-1.50
2019-03-10T21:50:57.789Z,-1.50
2019-03-10T21:53:28.720Z,-1.50
2019-03-10T21:56:11.509Z,-1.50
2019-03-10T21:58:42.278Z,-1.50
2019-03-10T22:01:12.787Z,-1.50
2019-03-10T22:03:43.260Z,-1.50
2019-03-10T22:06:14.191Z,-1.50
2019-03-10T22:08:44.663Z,-1.50
2019-03-10T22:11:15.674Z,-1.50
2019-03-10T22:13:47.014Z,-1.50
2019-03-10T22:16:17.373Z,-1.50
2019-03-10T22:18:47.706Z,-1.50
2019-03-10T22:21:18.385Z,-1.50
2019-03-10T22:23:58.868Z,-1.50
2019-03-10T22:26:20.898Z,-1.50
2019-03-10T22:28:51.432Z,-1.50
2019-03-10T22:31:21.826Z,-1.60
2019-03-10T22:33:52.466Z,-1.50
2019-03-10T22:36:22.948Z,-1.60
2019-03-10T22:38:53.447Z,-1.50
2019-03-10T22:41:24.001Z,-1.60
2019-03-10T22:43:54.506Z,-1.60
2019-03-10T22:46:26.513Z,-1.70
2019-03-10T22:48:56.909Z,-1.60
2019-03-10T22:51:27.353Z,-1.60
2019-03-10T22:53:57.853Z,-1.60
2019-03-10T22:56:28.368Z,-1.60
2019-03-10T22:58:58.867Z,-1.60
2019-03-10T23:01:29.233Z,-1.60
2019-03-10T23:03:59.401Z,-1.60
2019-03-10T23:06:29.758Z,-1.50
2019-03-10T23:09:00.744Z,-1.50
2019-03-10T23:11:30.949Z,-1.60
2019-03-10T23:14:01.533Z,-1.60
2019-03-10T23:16:32.012Z,-1.60
2019-03-10T23:19:02.430Z,-1.60
2019-03-10T23:21:32.857Z,-1.60
2019-03-10T23:24:03.415Z,-1.60
2019-03-10T23:26:33.964Z,-1.60
2019-03-10T23:29:04.192Z,-1.60
2019-03-10T23:31:34.556Z,-1.60
2019-03-10T23:34:04.961Z,-1.60
2019-03-10T23:36:35.548Z,-1.60
2019-03-10T23:39:06.781Z,-1.60
2019-03-10T23:41:37.061Z,-1.60
2019-03-10T23:44:07.610Z,-1.60
2019-03-10T23:46:37.840Z,-1.60
2019-03-10T23:49:08.883Z,-1.70
2019-03-10T23:51:39.373Z,-1.60
2019-03-10T23:54:09.653Z,-1.60
2019-03-10T23:56:40.072Z,-1.60
2019-03-10T23:59:10.691Z,-1.60
